Latest Weather Observations for Rundle Island

IDQ60801

Issued at 8:22 pm EST Friday 26 February 2021 (issued every 10 minutes, with the page automatically refreshed every 10 minutes)

About weather observations | Map of weather stations | Latest weather observations for QLD | Other Formats
Station Details ID: 039322 Name: RUNDLE ISLAND Lat: -23.53 Lon: 151.28 Height: 19.8 m
Data from the previous 72 hours. | See also: Recent months at Rundle Island
Date/Time
EST
Temp
°C
App
Temp
°C
Dew
Point
°C
Rel
Hum
%
Delta-T
°C
Wind Press
QNH
hPa
Press
MSL
hPa
Rain since
9am
mm
Dir  Spd
km/h
Gust
km/h
Spd
kts
Gust
kts
26/08:00pm 26.9 - - - - E 22 26 12 14 1009.7 1009.6 -
26/07:30pm 26.9 - - - - E 22 26 12 14 1009.4 1009.3 -
26/07:00pm 26.9 - - - - E 20 22 11 12 1009.2 1009.1 -
26/06:30pm 26.9 - - - - E 20 24 11 13 1008.8 1008.7 -
26/06:00pm 27.0 - - - - E 22 26 12 14 1008.4 1008.3 -
26/05:30pm 27.1 - - - - E 20 24 11 13 1008.3 1008.2 -
26/05:00pm 27.1 - - - - E 20 22 11 12 1008.3 1008.2 -
26/04:30pm 27.1 - - - - E 20 24 11 13 1008.0 1007.9 -
26/04:00pm 27.1 - - - - ESE 20 24 11 13 1007.7 1007.6 -
26/03:30pm 27.1 - - - - E 20 26 11 14 1007.9 1007.8 -
26/03:00pm 27.0 - - - - E 20 24 11 13 1008.0 1007.9 -
26/02:30pm 27.1 - - - - E 19 20 10 11 1008.1 1008.0 -
26/02:00pm 27.1 - - - - E 19 22 10 12 1008.4 1008.3 -
26/01:30pm 27.4 - - - - E 19 22 10 12 1008.5 1008.4 -
26/01:00pm 27.0 - - - - ESE 20 22 11 12 1008.7 1008.6 -
26/12:30pm 27.0 - - - - E 19 22 10 12 1008.9 1008.8 -
26/12:00pm 26.9 - - - - E 20 24 11 13 1009.2 1009.1 -
26/11:30am 27.0 - - - - ESE 19 24 10 13 1009.3 1009.2 -
26/11:00am 26.8 - - - - ESE 20 22 11 12 1009.5 1009.4 -
26/10:30am 27.0 - - - - ESE 20 24 11 13 1009.6 1009.5 -
26/10:00am 26.9 - - - - ESE 20 24 11 13 1009.7 1009.6 -
26/09:30am 26.9 - - - - ESE 20 24 11 13 1009.8 1009.7 -
26/09:00am 26.8 - - - - ESE 20 24 11 13 1009.7 1009.6 -
26/08:30am 26.6 - - - - E 22 24 12 13 1009.6 1009.5 -
26/08:00am 26.6 - - - - E 20 24 11 13 1009.5 1009.4 -
26/07:30am 26.7 - - - - E 20 24 11 13 1009.3 1009.2 -
26/07:00am 26.5 - - - - E 22 26 12 14 1009.1 1009.0 -
26/06:30am 26.6 - - - - E 22 26 12 14 1008.9 1008.8 -
26/06:00am 26.3 - - - - E 22 26 12 14 1008.6 1008.5 -
26/05:30am 26.3 - - - - ESE 22 26 12 14 1008.2 1008.1 -
26/05:00am 26.5 - - - - ESE 22 26 12 14 1008.1 1008.0 -
26/04:30am 26.3 - - - - E 24 26 13 14 1008.1 1008.0 -
26/04:00am 26.4 - - - - E 24 28 13 15 1007.9 1007.8 -
26/03:30am 26.4 - - - - E 24 26 13 14 1007.8 1007.7 -
26/03:00am 26.4 - - - - E 26 28 14 15 1007.9 1007.8 -
26/02:30am 26.5 - - - - E 24 30 13 16 1008.2 1008.1 -
26/02:00am 26.5 - - - - E 24 28 13 15 1008.5 1008.4 -
26/01:30am 26.6 - - - - E 24 28 13 15 1008.9 1008.8 -
26/01:00am 26.7 - - - - E 24 28 13 15 1009.2 1009.1 -
26/12:30am 26.8 - - - - E 24 30 13 16 1009.5 1009.4 -
26/12:00am 26.7 - - - - E 26 30 14 16 1009.8 1009.7 -
 
Date/Time
EST
Temp
°C
App
Temp
°C
Dew
Point
°C
Rel
Hum
%
Delta-T
°C
Wind Press
QNH
hPa
Press
MSL
hPa
Rain since
9am
mm
Dir  Spd
km/h
Gust
km/h
Spd
kts
Gust
kts
25/11:30pm 26.8 - - - - E 26 30 14 16 1010.0 1009.9 -
25/11:00pm 27.0 - - - - E 26 32 14 17 1010.2 1010.1 -
25/10:30pm 26.8 - - - - E 26 30 14 16 1010.2 1010.1 -
25/10:00pm 26.9 - - - - E 28 32 15 17 1010.1 1010.0 -
25/09:30pm 26.8 - - - - E 28 32 15 17 1009.9 1009.8 -
25/09:00pm 26.9 - - - - E 28 32 15 17 1009.7 1009.6 -
25/08:30pm 26.9 - - - - E 26 30 14 16 1009.7 1009.6 -
25/08:00pm 26.9 - - - - E 28 32 15 17 1009.4 1009.3 -
25/07:30pm 26.9 - - - - E 30 33 16 18 1009.0 1008.9 -
25/07:00pm 26.9 - - - - E 30 33 16 18 1008.6 1008.5 -
25/06:30pm 26.8 - - - - E 30 33 16 18 1008.3 1008.2 -
25/06:00pm 27.0 - - - - E 30 33 16 18 1008.2 1008.1 -
25/05:30pm 26.9 - - - - E 30 33 16 18 1008.2 1008.1 -
25/05:00pm 26.9 - - - - E 30 33 16 18 1008.0 1007.9 -
25/04:30pm 27.0 - - - - E 28 32 15 17 1008.2 1008.1 -
25/04:00pm 26.8 - - - - E 28 32 15 17 1008.2 1008.1 -
25/03:30pm 26.8 - - - - ESE 28 32 15 17 1008.4 1008.3 -
25/03:00pm 26.9 - - - - ESE 28 30 15 16 1008.6 1008.5 -
25/02:30pm 27.0 - - - - ESE 24 30 13 16 1008.9 1008.8 -
25/02:00pm 26.9 - - - - ESE 26 30 14 16 1009.1 1009.0 -
25/01:30pm 27.0 - - - - ESE 26 30 14 16 1009.5 1009.4 -
25/01:00pm 27.1 - - - - ESE 24 28 13 15 1009.7 1009.6 -
25/12:30pm 27.2 - - - - E 22 28 12 15 1010.2 1010.1 -
25/12:00pm 27.3 - - - - E 24 28 13 15 1010.5 1010.4 -
25/11:30am 27.2 - - - - ESE 24 26 13 14 1010.9 1010.8 -
25/11:00am 27.1 - - - - ESE 22 26 12 14 1011.3 1011.2 -
25/10:30am 27.0 - - - - ESE 26 30 14 16 1011.4 1011.3 -
25/10:00am 27.0 - - - - ESE 24 28 13 15 1011.3 1011.2 -
25/09:30am 27.0 - - - - E 26 30 14 16 1011.2 1011.1 -
25/09:00am 26.9 - - - - ESE 30 35 16 19 1010.9 1010.8 -
25/08:30am 26.9 - - - - E 28 32 15 17 1010.4 1010.3 -
25/08:00am 26.1 - - - - ESE 26 33 14 18 1010.2 1010.1 -
25/07:38am 26.2 - - - - E 30 50 16 27 1010.0 1009.9 -
25/07:30am 25.5 - - - - E 26 35 14 19 1010.1 1010.0 -
25/07:00am 26.6 - - - - ESE 30 33 16 18 1009.8 1009.7 -
25/06:30am 26.6 - - - - ESE 33 35 18 19 1009.5 1009.4 -
25/06:00am 26.7 - - - - ESE 32 37 17 20 1009.2 1009.1 -
25/05:30am 26.6 - - - - E 32 37 17 20 1008.9 1008.8 -
25/05:00am 26.7 - - - - ESE 32 37 17 20 1008.6 1008.5 -
25/04:30am 26.8 - - - - E 32 37 17 20 1008.5 1008.4 -
25/04:00am 26.4 - - - - ESE 32 37 17 20 1008.3 1008.2 -
25/03:30am 26.7 - - - - ESE 35 39 19 21 1008.3 1008.2 -
25/03:00am 26.4 - - - - E 26 33 14 18 1008.4 1008.3 -
25/02:30am 26.7 - - - - ESE 32 33 17 18 1008.6 1008.5 -
25/02:00am 26.8 - - - - ESE 32 35 17 19 1009.0 1008.9 -
25/01:30am 26.9 - - - - ESE 32 37 17 20 1009.5 1009.4 -
25/01:00am 26.9 - - - - ESE 30 33 16 18 1010.0 1009.9 -
25/12:30am 26.8 - - - - ESE 30 33 16 18 1010.2 1010.1 -
25/12:00am 26.9 - - - - E 32 33 17 18 1010.6 1010.5 -
 
Date/Time
EST
Temp
°C
App
Temp
°C
Dew
Point
°C
Rel
Hum
%
Delta-T
°C
Wind Press
QNH
hPa
Press
MSL
hPa
Rain since
9am
mm
Dir  Spd
km/h
Gust
km/h
Spd
kts
Gust
kts
24/11:30pm 27.0 - - - - E 32 35 17 19 1010.9 1010.8 -
24/11:00pm 27.1 - - - - E 30 35 16 19 1011.0 1010.9 -
24/10:30pm 27.0 - - - - ESE 32 37 17 20 1010.8 1010.7 -
24/10:00pm 26.9 - - - - E 33 37 18 20 1010.6 1010.5 -
24/09:30pm 27.0 - - - - E 32 33 17 18 1010.8 1010.7 -
24/09:00pm 27.0 - - - - E 32 35 17 19 1010.7 1010.6 -
24/08:30pm 26.9 - - - - E 32 37 17 20 1010.5 1010.4 -
24/08:00pm 26.9 - - - - E 32 37 17 20 1010.2 1010.1 -
24/07:30pm 26.8 - - - - E 33 39 18 21 1009.9 1009.8 -
24/07:00pm 26.9 - - - - ESE 37 41 20 22 1009.2 1009.1 -
24/06:30pm 26.9 - - - - ESE 33 37 18 20 1009.0 1008.9 -
24/06:00pm 26.9 - - - - ESE 33 39 18 21 1008.9 1008.8 -
24/05:30pm 27.1 - - - - ESE 30 35 16 19 1009.0 1008.9 -
24/05:00pm 27.0 - - - - ESE 32 35 17 19 1008.7 1008.6 -
24/04:30pm 27.1 - - - - ESE 32 35 17 19 1008.6 1008.5 -
24/04:00pm 27.1 - - - - ESE 32 35 17 19 1008.7 1008.6 -
24/03:30pm 27.2 - - - - ESE 32 35 17 19 1008.7 1008.6 -
24/03:00pm 27.2 - - - - ESE 32 33 17 18 1008.9 1008.8 -
24/02:30pm 27.1 - - - - E 30 32 16 17 1009.2 1009.1 -
24/02:00pm 27.3 - - - - ESE 28 32 15 17 1009.4 1009.3 -
24/01:30pm 27.6 - - - - ESE 26 30 14 16 1010.0 1009.9 -
24/01:00pm 27.4 - - - - ESE 28 30 15 16 1010.4 1010.3 -
24/12:30pm 27.3 - - - - ESE 28 32 15 17 1010.3 1010.2 -
24/12:00pm 27.6 - - - - ESE 28 32 15 17 1010.5 1010.4 -
24/11:30am 27.3 - - - - ESE 28 32 15 17 1010.8 1010.7 -
24/11:00am 27.2 - - - - ESE 28 30 15 16 1010.9 1010.8 -
24/10:30am 27.4 - - - - ESE 24 26 13 14 1011.2 1011.1 -
24/10:00am 27.3 - - - - ESE 28 30 15 16 1011.1 1011.0 -
24/09:30am 27.2 - - - - ESE 30 33 16 18 1011.1 1011.0 -
24/09:00am 27.1 - - - - ESE 26 32 14 17 1011.1 1011.0 -
24/08:30am 27.1 - - - - ESE 26 30 14 16 1010.9 1010.8 -
24/08:00am 27.0 - - - - ESE 28 32 15 17 1010.6 1010.5 -
24/07:30am 27.0 - - - - ESE 33 37 18 20 1010.1 1010.0 -
24/07:00am 26.9 - - - - ESE 33 37 18 20 1009.7 1009.6 -
24/06:30am 26.9 - - - - ESE 33 37 18 20 1009.4 1009.3 -
24/06:00am 26.9 - - - - ESE 32 35 17 19 1009.1 1009.0 -
24/05:30am 26.9 - - - - ESE 33 37 18 20 1008.8 1008.7 -
24/05:00am 26.7 - - - - ESE 33 39 18 21 1008.6 1008.5 -
24/04:30am 26.7 - - - - ESE 32 35 17 19 1008.7 1008.6 -
24/04:00am 26.6 - - - - ESE 30 32 16 17 1008.7 1008.6 -
24/03:30am 26.7 - - - - SE 28 35 15 19 1008.8 1008.7 -
24/03:00am 26.9 - - - - SE 28 33 15 18 1008.9 1008.8 -
24/02:30am 27.0 - - - - SE 19 20 10 11 1009.2 1009.1 -
24/02:00am 27.0 - - - - SE 19 20 10 11 1009.1 1009.0 -
24/01:30am 27.0 - - - - SE 19 20 10 11 1009.1 1009.0 -
24/01:00am 27.0 - - - - SE 15 17 8 9 1009.4 1009.3 -
24/12:30am 27.2 - - - - SE 17 19 9 10 1009.8 1009.7 -
24/12:00am 27.1 - - - - ESE 19 22 10 12 1009.9 1009.8 -
 
Date/Time
EST
Temp
°C
App
Temp
°C
Dew
Point
°C
Rel
Hum
%
Delta-T
°C
Wind Press
QNH
hPa
Press
MSL
hPa
Rain since
9am
mm
Dir  Spd
km/h
Gust
km/h
Spd
kts
Gust
kts
23/11:30pm 27.3 - - - - E 19 20 10 11 1009.7 1009.6 -
23/11:00pm 27.2 - - - - E 20 20 11 11 1009.2 1009.1 -
23/10:30pm 27.2 - - - - ENE 19 20 10 11 1008.9 1008.8 -
23/10:00pm 27.3 - - - - ENE 20 24 11 13 1008.9 1008.8 -
23/09:30pm 27.3 - - - - ENE 22 26 12 14 1008.5 1008.4 -
23/09:00pm 27.2 - - - - E 20 24 11 13 1008.4 1008.3 -
23/08:30pm 27.4 - - - - ENE 22 26 12 14 1007.9 1007.8 -

Other formats

Comma delimited format used in spreadsheet applications
http://www.bom.gov.au/fwo/IDQ60801/IDQ60801.94378.axf

JavaScript Object Notation format (JSON) in row-major order
http://www.bom.gov.au/fwo/IDQ60801/IDQ60801.94378.json

Data quality

Most of these data are generated automatically and are frequently updated. Quality checks on data are not normally performed. It is possible for incorrect values to appear. Refer to information at About Latest Weather Observations and please check the disclaimer before using these data.